Terminal Aerodrome Forecast
Issued by NWS

Home | Current Version | Previous Version | Text Only | Print | Product List | Glossary Off
Versions: 1 2 3 4 5 6 7 8 9 10 11 12 13 14 15 16 17 18 19

000
FTUS43 KAPX 301100
TAFTVC
TAF
KTVC 301120Z 3012/0112 02009KT P6SM OVC015
      TEMPO 3012/3014 BKN008
     FM302000 03005KT P6SM BKN035
     FM010400 00000KT 6SM BR OVC025=

USA.gov is the U.S. government's official web portal to all federal, state and local government web resources and services.